sensor_id;sensor_type;location;lat;lon;timestamp;temperature;humidity
1175;DHT22;576;48.418;10.074;2023-06-10T00:00:04;27.20;54.70
1175;DHT22;576;48.418;10.074;2023-06-10T00:02:39;27.30;54.70
1175;DHT22;576;48.418;10.074;2023-06-10T00:05:08;27.20;54.70
1175;DHT22;576;48.418;10.074;2023-06-10T00:07:38;27.20;54.70
1175;DHT22;576;48.418;10.074;2023-06-10T00:10:08;27.30;54.70
1175;DHT22;576;48.418;10.074;2023-06-10T00:12:37;27.30;54.60
1175;DHT22;576;48.418;10.074;2023-06-10T00:15:08;27.30;54.60
1175;DHT22;576;48.418;10.074;2023-06-10T00:17:37;27.30;54.60
1175;DHT22;576;48.418;10.074;2023-06-10T00:20:08;27.30;54.60
1175;DHT22;576;48.418;10.074;2023-06-10T00:22:39;27.30;54.60
1175;DHT22;576;48.418;10.074;2023-06-10T00:25:09;27.30;54.60
1175;DHT22;576;48.418;10.074;2023-06-10T00:27:38;27.30;54.60
1175;DHT22;576;48.418;10.074;2023-06-10T00:30:10;27.30;54.60
1175;DHT22;576;48.418;10.074;2023-06-10T00:32:38;27.30;54.70
1175;DHT22;576;48.418;10.074;2023-06-10T00:35:07;27.20;54.80
1175;DHT22;576;48.418;10.074;2023-06-10T00:37:38;27.20;54.80
1175;DHT22;576;48.418;10.074;2023-06-10T00:40:07;27.20;54.70
1175;DHT22;576;48.418;10.074;2023-06-10T00:42:37;27.20;54.80
1175;DHT22;576;48.418;10.074;2023-06-10T00:45:06;27.20;54.80
1175;DHT22;576;48.418;10.074;2023-06-10T00:47:37;27.20;54.80
1175;DHT22;576;48.418;10.074;2023-06-10T00:50:07;27.20;54.70
1175;DHT22;576;48.418;10.074;2023-06-10T00:52:35;27.20;54.80
1175;DHT22;576;48.418;10.074;2023-06-10T00:55:04;27.20;54.80
1175;DHT22;576;48.418;10.074;2023-06-10T00:57:36;27.20;54.80
1175;DHT22;576;48.418;10.074;2023-06-10T01:00:05;27.20;54.70
1175;DHT22;576;48.418;10.074;2023-06-10T01:02:37;27.20;54.70
1175;DHT22;576;48.418;10.074;2023-06-10T01:05:06;27.20;54.80
1175;DHT22;576;48.418;10.074;2023-06-10T01:07:39;27.20;54.80
1175;DHT22;576;48.418;10.074;2023-06-10T01:10:14;27.20;54.70
1175;DHT22;576;48.418;10.074;2023-06-10T01:12:58;27.20;54.80
1175;DHT22;576;48.418;10.074;2023-06-10T01:15:30;27.20;54.80
1175;DHT22;576;48.418;10.074;2023-06-10T01:18:01;27.20;54.80
1175;DHT22;576;48.418;10.074;2023-06-10T01:20:31;27.20;54.80
1175;DHT22;576;48.418;10.074;2023-06-10T01:23:01;27.20;54.70
1175;DHT22;576;48.418;10.074;2023-06-10T01:25:31;27.10;54.90
1175;DHT22;576;48.418;10.074;2023-06-10T01:28:07;27.10;54.80
1175;DHT22;576;48.418;10.074;2023-06-10T01:30:45;27.10;54.90
1175;DHT22;576;48.418;10.074;2023-06-10T01:33:19;27.10;54.90
1175;DHT22;576;48.418;10.074;2023-06-10T01:35:50;27.10;54.90
1175;DHT22;576;48.418;10.074;2023-06-10T01:38:22;27.10;54.90
1175;DHT22;576;48.418;10.074;2023-06-10T01:40:52;27.10;54.90
1175;DHT22;576;48.418;10.074;2023-06-10T01:43:21;27.10;55.00
1175;DHT22;576;48.418;10.074;2023-06-10T01:45:49;27.10;55.00
1175;DHT22;576;48.418;10.074;2023-06-10T01:48:18;27.10;55.00
1175;DHT22;576;48.418;10.074;2023-06-10T01:50:47;27.10;55.00
1175;DHT22;576;48.418;10.074;2023-06-10T01:53:15;27.10;54.90
1175;DHT22;576;48.418;10.074;2023-06-10T01:55:45;27.10;54.90
1175;DHT22;576;48.418;10.074;2023-06-10T01:58:13;27.10;55.20
1175;DHT22;576;48.418;10.074;2023-06-10T02:00:42;27.10;54.80
1175;DHT22;576;48.418;10.074;2023-06-10T02:03:10;27.10;54.90
1175;DHT22;576;48.418;10.074;2023-06-10T02:05:39;27.10;54.90
1175;DHT22;576;48.418;10.074;2023-06-10T02:08:07;27.10;54.90
1175;DHT22;576;48.418;10.074;2023-06-10T02:10:36;27.20;55.10
1175;DHT22;576;48.418;10.074;2023-06-10T02:13:05;27.20;54.80
1175;DHT22;576;48.418;10.074;2023-06-10T02:15:34;27.20;55.00
1175;DHT22;576;48.418;10.074;2023-06-10T02:18:02;27.30;54.70
1175;DHT22;576;48.418;10.074;2023-06-10T02:20:30;27.30;54.70
1175;DHT22;576;48.418;10.074;2023-06-10T02:22:59;27.30;54.80
1175;DHT22;576;48.418;10.074;2023-06-10T02:25:28;27.30;54.80
1175;DHT22;576;48.418;10.074;2023-06-10T02:27:56;27.40;54.70
1175;DHT22;576;48.418;10.074;2023-06-10T02:30:26;27.40;54.70
1175;DHT22;576;48.418;10.074;2023-06-10T02:32:54;27.40;54.80
1175;DHT22;576;48.418;10.074;2023-06-10T02:35:24;27.40;54.60
1175;DHT22;576;48.418;10.074;2023-06-10T02:37:53;27.40;54.90
1175;DHT22;576;48.418;10.074;2023-06-10T02:40:22;27.40;54.60
1175;DHT22;576;48.418;10.074;2023-06-10T02:42:50;27.40;54.80
1175;DHT22;576;48.418;10.074;2023-06-10T02:45:19;27.40;54.70
1175;DHT22;576;48.418;10.074;2023-06-10T02:47:48;27.40;55.00
1175;DHT22;576;48.418;10.074;2023-06-10T02:50:17;27.50;54.80
1175;DHT22;576;48.418;10.074;2023-06-10T02:52:56;27.40;54.70
1175;DHT22;576;48.418;10.074;2023-06-10T02:55:24;27.50;54.70
1175;DHT22;576;48.418;10.074;2023-06-10T02:57:59;27.50;54.70
1175;DHT22;576;48.418;10.074;2023-06-10T03:00:28;27.50;54.90
1175;DHT22;576;48.418;10.074;2023-06-10T03:02:58;27.50;54.80
1175;DHT22;576;48.418;10.074;2023-06-10T03:05:34;27.50;54.70
1175;DHT22;576;48.418;10.074;2023-06-10T03:08:04;27.50;54.60
1175;DHT22;576;48.418;10.074;2023-06-10T03:10:35;27.50;54.70
1175;DHT22;576;48.418;10.074;2023-06-10T03:13:04;27.50;54.60
1175;DHT22;576;48.418;10.074;2023-06-10T03:15:32;27.40;54.70
1175;DHT22;576;48.418;10.074;2023-06-10T03:18:06;27.40;54.70
1175;DHT22;576;48.418;10.074;2023-06-10T03:20:35;27.40;54.80
1175;DHT22;576;48.418;10.074;2023-06-10T03:23:05;27.40;54.80
1175;DHT22;576;48.418;10.074;2023-06-10T03:25:34;27.40;54.70
1175;DHT22;576;48.418;10.074;2023-06-10T03:28:03;27.40;54.80
1175;DHT22;576;48.418;10.074;2023-06-10T03:30:34;27.40;54.80
1175;DHT22;576;48.418;10.074;2023-06-10T03:33:02;27.30;55.00
1175;DHT22;576;48.418;10.074;2023-06-10T03:35:32;27.30;54.80
1175;DHT22;576;48.418;10.074;2023-06-10T03:38:03;27.30;54.90
1175;DHT22;576;48.418;10.074;2023-06-10T03:40:31;27.30;54.90
1175;DHT22;576;48.418;10.074;2023-06-10T03:43:00;27.30;55.00
1175;DHT22;576;48.418;10.074;2023-06-10T03:45:30;27.30;55.00
1175;DHT22;576;48.418;10.074;2023-06-10T03:48:00;27.20;55.10
1175;DHT22;576;48.418;10.074;2023-06-10T03:50:36;27.20;55.00
1175;DHT22;576;48.418;10.074;2023-06-10T03:53:05;27.30;55.10
1175;DHT22;576;48.418;10.074;2023-06-10T03:55:33;27.20;55.20
1175;DHT22;576;48.418;10.074;2023-06-10T03:58:01;27.20;55.10
1175;DHT22;576;48.418;10.074;2023-06-10T04:00:30;27.20;55.20
1175;DHT22;576;48.418;10.074;2023-06-10T04:03:08;27.20;55.10
1175;DHT22;576;48.418;10.074;2023-06-10T04:05:48;27.20;55.10
1175;DHT22;576;48.418;10.074;2023-06-10T04:08:17;27.20;55.20
1175;DHT22;576;48.418;10.074;2023-06-10T04:10:45;27.20;55.20
1175;DHT22;576;48.418;10.074;2023-06-10T04:13:13;27.20;55.20
1175;DHT22;576;48.418;10.074;2023-06-10T04:15:53;27.20;55.30
1175;DHT22;576;48.418;10.074;2023-06-10T04:18:22;27.20;55.30
1175;DHT22;576;48.418;10.074;2023-06-10T04:20:55;27.20;55.30
1175;DHT22;576;48.418;10.074;2023-06-10T04:23:24;27.20;55.30
1175;DHT22;576;48.418;10.074;2023-06-10T04:25:53;27.20;55.30
1175;DHT22;576;48.418;10.074;2023-06-10T04:28:21;27.20;55.30
1175;DHT22;576;48.418;10.074;2023-06-10T04:30:50;27.20;55.30
1175;DHT22;576;48.418;10.074;2023-06-10T04:33:18;27.20;55.30
1175;DHT22;576;48.418;10.074;2023-06-10T04:35:47;27.10;55.40
1175;DHT22;576;48.418;10.074;2023-06-10T04:38:18;27.10;55.40
1175;DHT22;576;48.418;10.074;2023-06-10T04:40:46;27.10;55.40
1175;DHT22;576;48.418;10.074;2023-06-10T04:43:16;27.10;55.40
1175;DHT22;576;48.418;10.074;2023-06-10T04:45:45;27.10;55.40
1175;DHT22;576;48.418;10.074;2023-06-10T04:48:14;27.00;55.30
1175;DHT22;576;48.418;10.074;2023-06-10T04:50:42;27.00;55.40
1175;DHT22;576;48.418;10.074;2023-06-10T04:53:10;27.00;55.40
1175;DHT22;576;48.418;10.074;2023-06-10T04:55:44;27.00;55.50
1175;DHT22;576;48.418;10.074;2023-06-10T04:58:12;27.00;55.50
1175;DHT22;576;48.418;10.074;2023-06-10T05:00:41;27.00;55.40
1175;DHT22;576;48.418;10.074;2023-06-10T05:03:10;27.00;55.40
1175;DHT22;576;48.418;10.074;2023-06-10T05:05:38;27.00;55.70
1175;DHT22;576;48.418;10.074;2023-06-10T05:08:07;27.00;55.60
1175;DHT22;576;48.418;10.074;2023-06-10T05:10:35;27.00;55.40
1175;DHT22;576;48.418;10.074;2023-06-10T05:13:04;26.90;55.50
1175;DHT22;576;48.418;10.074;2023-06-10T05:15:33;26.90;55.60
1175;DHT22;576;48.418;10.074;2023-06-10T05:18:01;26.90;55.60
1175;DHT22;576;48.418;10.074;2023-06-10T05:20:30;26.90;55.50
1175;DHT22;576;48.418;10.074;2023-06-10T05:22:58;26.90;55.60
1175;DHT22;576;48.418;10.074;2023-06-10T05:25:28;26.90;55.60
1175;DHT22;576;48.418;10.074;2023-06-10T05:27:58;26.90;55.60
1175;DHT22;576;48.418;10.074;2023-06-10T05:30:27;26.90;55.60
1175;DHT22;576;48.418;10.074;2023-06-10T05:32:55;26.90;55.60
1175;DHT22;576;48.418;10.074;2023-06-10T05:35:24;26.90;55.60
1175;DHT22;576;48.418;10.074;2023-06-10T05:37:52;26.90;55.60
1175;DHT22;576;48.418;10.074;2023-06-10T05:40:21;26.90;55.70
1175;DHT22;576;48.418;10.074;2023-06-10T05:42:49;26.90;55.70
1175;DHT22;576;48.418;10.074;2023-06-10T05:45:17;26.90;55.60
1175;DHT22;576;48.418;10.074;2023-06-10T05:47:47;26.90;55.70
1175;DHT22;576;48.418;10.074;2023-06-10T05:50:15;26.90;55.70
1175;DHT22;576;48.418;10.074;2023-06-10T05:52:43;26.90;55.70
1175;DHT22;576;48.418;10.074;2023-06-10T05:55:11;26.90;55.70
1175;DHT22;576;48.418;10.074;2023-06-10T05:57:41;26.90;55.60
1175;DHT22;576;48.418;10.074;2023-06-10T06:00:10;26.90;55.70
1175;DHT22;576;48.418;10.074;2023-06-10T06:02:39;26.90;55.70
1175;DHT22;576;48.418;10.074;2023-06-10T06:05:09;27.00;55.70
1175;DHT22;576;48.418;10.074;2023-06-10T06:07:37;27.00;55.70
1175;DHT22;576;48.418;10.074;2023-06-10T06:10:06;27.00;55.70
1175;DHT22;576;48.418;10.074;2023-06-10T06:12:35;27.00;55.70
1175;DHT22;576;48.418;10.074;2023-06-10T06:15:04;27.00;55.60
1175;DHT22;576;48.418;10.074;2023-06-10T06:17:32;27.00;55.70
1175;DHT22;576;48.418;10.074;2023-06-10T06:20:01;27.00;55.70
1175;DHT22;576;48.418;10.074;2023-06-10T06:22:30;27.00;55.70
1175;DHT22;576;48.418;10.074;2023-06-10T06:24:58;27.00;55.80
1175;DHT22;576;48.418;10.074;2023-06-10T06:27:27;27.00;55.80
1175;DHT22;576;48.418;10.074;2023-06-10T06:29:55;27.00;55.80
1175;DHT22;576;48.418;10.074;2023-06-10T06:32:24;27.00;55.80
1175;DHT22;576;48.418;10.074;2023-06-10T06:34:54;27.00;55.80
1175;DHT22;576;48.418;10.074;2023-06-10T06:37:23;27.00;55.80
1175;DHT22;576;48.418;10.074;2023-06-10T06:40:08;27.00;55.80
1175;DHT22;576;48.418;10.074;2023-06-10T06:42:36;27.00;55.90
1175;DHT22;576;48.418;10.074;2023-06-10T06:45:31;27.00;56.00
1175;DHT22;576;48.418;10.074;2023-06-10T06:48:00;27.00;56.00
1175;DHT22;576;48.418;10.074;2023-06-10T06:50:29;27.00;56.00
1175;DHT22;576;48.418;10.074;2023-06-10T06:52:57;27.00;56.10
1175;DHT22;576;48.418;10.074;2023-06-10T06:55:27;27.00;56.10
1175;DHT22;576;48.418;10.074;2023-06-10T06:57:55;27.00;56.20
1175;DHT22;576;48.418;10.074;2023-06-10T07:00:23;27.00;56.30
1175;DHT22;576;48.418;10.074;2023-06-10T07:02:52;27.00;56.20
1175;DHT22;576;48.418;10.074;2023-06-10T07:05:20;27.00;56.30
1175;DHT22;576;48.418;10.074;2023-06-10T07:07:48;27.00;56.30
1175;DHT22;576;48.418;10.074;2023-06-10T07:10:21;27.00;56.30
1175;DHT22;576;48.418;10.074;2023-06-10T07:12:52;27.00;56.40
1175;DHT22;576;48.418;10.074;2023-06-10T07:15:21;27.00;56.40
1175;DHT22;576;48.418;10.074;2023-06-10T07:17:49;27.00;56.40
1175;DHT22;576;48.418;10.074;2023-06-10T07:20:17;27.00;56.40
1175;DHT22;576;48.418;10.074;2023-06-10T07:22:46;27.00;56.40
1175;DHT22;576;48.418;10.074;2023-06-10T07:25:14;27.00;56.50
1175;DHT22;576;48.418;10.074;2023-06-10T07:27:42;27.00;56.50
1175;DHT22;576;48.418;10.074;2023-06-10T07:30:13;27.00;56.40
1175;DHT22;576;48.418;10.074;2023-06-10T07:32:41;27.00;56.50
1175;DHT22;576;48.418;10.074;2023-06-10T07:35:10;27.10;56.50
1175;DHT22;576;48.418;10.074;2023-06-10T07:37:39;27.10;56.50
1175;DHT22;576;48.418;10.074;2023-06-10T07:40:08;27.10;56.70
1175;DHT22;576;48.418;10.074;2023-06-10T07:42:37;27.00;56.60
1175;DHT22;576;48.418;10.074;2023-06-10T07:45:06;27.00;56.90
1175;DHT22;576;48.418;10.074;2023-06-10T07:47:36;27.00;56.80
1175;DHT22;576;48.418;10.074;2023-06-10T07:50:05;27.00;56.80
1175;DHT22;576;48.418;10.074;2023-06-10T07:52:33;27.00;56.90
1175;DHT22;576;48.418;10.074;2023-06-10T07:55:01;27.00;56.90
1175;DHT22;576;48.418;10.074;2023-06-10T07:57:29;27.00;57.30
1175;DHT22;576;48.418;10.074;2023-06-10T08:00:02;27.00;57.00
1175;DHT22;576;48.418;10.074;2023-06-10T08:02:39;27.00;57.10
1175;DHT22;576;48.418;10.074;2023-06-10T08:05:08;27.00;57.00
1175;DHT22;576;48.418;10.074;2023-06-10T08:07:37;27.00;57.30
1175;DHT22;576;48.418;10.074;2023-06-10T08:10:06;27.00;57.20
1175;DHT22;576;48.418;10.074;2023-06-10T08:12:35;27.00;57.20
1175;DHT22;576;48.418;10.074;2023-06-10T08:15:04;27.00;57.90
1175;DHT22;576;48.418;10.074;2023-06-10T08:17:33;27.00;57.40
1175;DHT22;576;48.418;10.074;2023-06-10T08:20:03;27.00;57.60
1175;DHT22;576;48.418;10.074;2023-06-10T08:22:32;27.00;58.00
1175;DHT22;576;48.418;10.074;2023-06-10T08:25:00;27.00;58.80
1175;DHT22;576;48.418;10.074;2023-06-10T08:27:29;27.00;59.40
1175;DHT22;576;48.418;10.074;2023-06-10T08:29:57;27.00;58.80
1175;DHT22;576;48.418;10.074;2023-06-10T08:32:27;27.00;58.60
1175;DHT22;576;48.418;10.074;2023-06-10T08:34:56;27.10;59.60
1175;DHT22;576;48.418;10.074;2023-06-10T08:37:25;27.00;58.80
1175;DHT22;576;48.418;10.074;2023-06-10T08:39:53;27.00;58.90
1175;DHT22;576;48.418;10.074;2023-06-10T08:42:24;27.00;59.20
1175;DHT22;576;48.418;10.074;2023-06-10T08:44:54;27.10;58.70
1175;DHT22;576;48.418;10.074;2023-06-10T08:47:24;27.10;59.80
1175;DHT22;576;48.418;10.074;2023-06-10T08:49:55;27.10;60.10
1175;DHT22;576;48.418;10.074;2023-06-10T08:52:36;27.10;59.50
1175;DHT22;576;48.418;10.074;2023-06-10T08:55:09;27.10;59.90
1175;DHT22;576;48.418;10.074;2023-06-10T08:57:41;27.10;60.00
1175;DHT22;576;48.418;10.074;2023-06-10T09:00:12;27.10;59.90
1175;DHT22;576;48.418;10.074;2023-06-10T09:02:41;27.20;60.00
1175;DHT22;576;48.418;10.074;2023-06-10T09:05:10;27.20;60.30
1175;DHT22;576;48.418;10.074;2023-06-10T09:07:40;27.20;60.00
1175;DHT22;576;48.418;10.074;2023-06-10T09:10:09;27.20;59.70
1175;DHT22;576;48.418;10.074;2023-06-10T09:12:38;27.20;59.70
1175;DHT22;576;48.418;10.074;2023-06-10T09:15:07;27.10;59.90
1175;DHT22;576;48.418;10.074;2023-06-10T09:17:36;27.20;59.40
1175;DHT22;576;48.418;10.074;2023-06-10T09:20:06;27.20;59.60
1175;DHT22;576;48.418;10.074;2023-06-10T09:22:37;27.20;59.60
1175;DHT22;576;48.418;10.074;2023-06-10T09:25:08;27.20;59.60
1175;DHT22;576;48.418;10.074;2023-06-10T09:27:47;27.20;59.50
1175;DHT22;576;48.418;10.074;2023-06-10T09:30:35;27.20;59.30
1175;DHT22;576;48.418;10.074;2023-06-10T09:33:10;27.20;59.30
1175;DHT22;576;48.418;10.074;2023-06-10T09:35:46;27.20;59.40
1175;DHT22;576;48.418;10.074;2023-06-10T09:38:19;27.20;59.10
1175;DHT22;576;48.418;10.074;2023-06-10T09:40:52;27.20;58.90
1175;DHT22;576;48.418;10.074;2023-06-10T09:43:21;27.20;59.10
1175;DHT22;576;48.418;10.074;2023-06-10T09:45:49;27.20;59.00
1175;DHT22;576;48.418;10.074;2023-06-10T09:48:20;27.20;59.10
1175;DHT22;576;48.418;10.074;2023-06-10T09:50:49;27.20;59.00
1175;DHT22;576;48.418;10.074;2023-06-10T09:53:17;27.20;58.90
1175;DHT22;576;48.418;10.074;2023-06-10T09:55:46;27.20;58.90
1175;DHT22;576;48.418;10.074;2023-06-10T09:58:15;27.20;58.90
1175;DHT22;576;48.418;10.074;2023-06-10T10:00:44;27.10;58.80
1175;DHT22;576;48.418;10.074;2023-06-10T10:03:22;27.10;59.00
1175;DHT22;576;48.418;10.074;2023-06-10T10:05:58;27.20;58.80
1175;DHT22;576;48.418;10.074;2023-06-10T10:08:27;27.20;58.80
1175;DHT22;576;48.418;10.074;2023-06-10T10:10:57;27.20;58.40
1175;DHT22;576;48.418;10.074;2023-06-10T10:13:28;27.20;58.40
1175;DHT22;576;48.418;10.074;2023-06-10T10:15:57;27.20;58.40
1175;DHT22;576;48.418;10.074;2023-06-10T10:18:29;27.20;58.40
1175;DHT22;576;48.418;10.074;2023-06-10T10:21:05;27.20;58.70
1175;DHT22;576;48.418;10.074;2023-06-10T10:23:38;27.20;58.60
1175;DHT22;576;48.418;10.074;2023-06-10T10:26:10;27.20;58.70
1175;DHT22;576;48.418;10.074;2023-06-10T10:28:45;27.20;58.60
1175;DHT22;576;48.418;10.074;2023-06-10T10:31:16;27.20;58.70
1175;DHT22;576;48.418;10.074;2023-06-10T10:33:54;27.20;58.90
1175;DHT22;576;48.418;10.074;2023-06-10T10:36:23;27.20;58.60
1175;DHT22;576;48.418;10.074;2023-06-10T10:38:52;27.20;58.70
1175;DHT22;576;48.418;10.074;2023-06-10T10:41:21;27.20;58.80
1175;DHT22;576;48.418;10.074;2023-06-10T10:43:52;27.20;58.70
1175;DHT22;576;48.418;10.074;2023-06-10T10:46:21;27.20;58.60
1175;DHT22;576;48.418;10.074;2023-06-10T10:48:52;27.20;58.60
1175;DHT22;576;48.418;10.074;2023-06-10T10:51:22;27.20;58.50
1175;DHT22;576;48.418;10.074;2023-06-10T10:54:10;27.20;58.60
1175;DHT22;576;48.418;10.074;2023-06-10T10:56:38;27.20;58.50
1175;DHT22;576;48.418;10.074;2023-06-10T10:59:08;27.20;58.50
1175;DHT22;576;48.418;10.074;2023-06-10T11:01:43;27.20;58.40
1175;DHT22;576;48.418;10.074;2023-06-10T11:04:13;27.20;58.60
1175;DHT22;576;48.418;10.074;2023-06-10T11:06:52;27.20;58.40
1175;DHT22;576;48.418;10.074;2023-06-10T11:09:28;27.20;58.50
1175;DHT22;576;48.418;10.074;2023-06-10T11:11:57;27.20;58.50
1175;DHT22;576;48.418;10.074;2023-06-10T11:14:29;27.20;58.30
1175;DHT22;576;48.418;10.074;2023-06-10T11:16:59;27.20;58.40
1175;DHT22;576;48.418;10.074;2023-06-10T11:19:34;27.20;58.40
1175;DHT22;576;48.418;10.074;2023-06-10T11:22:05;27.20;58.40
1175;DHT22;576;48.418;10.074;2023-06-10T11:24:33;27.20;58.30
1175;DHT22;576;48.418;10.074;2023-06-10T11:27:18;27.20;58.30
1175;DHT22;576;48.418;10.074;2023-06-10T11:30:18;27.20;58.20
1175;DHT22;576;48.418;10.074;2023-06-10T11:32:51;27.20;57.90
1175;DHT22;576;48.418;10.074;2023-06-10T11:35:23;27.20;58.10
1175;DHT22;576;48.418;10.074;2023-06-10T11:37:52;27.20;58.10
1175;DHT22;576;48.418;10.074;2023-06-10T11:40:20;27.20;58.20
1175;DHT22;576;48.418;10.074;2023-06-10T11:42:48;27.10;58.30
1175;DHT22;576;48.418;10.074;2023-06-10T11:45:18;27.10;58.30
1175;DHT22;576;48.418;10.074;2023-06-10T11:47:56;27.20;58.30
1175;DHT22;576;48.418;10.074;2023-06-10T11:50:29;27.20;58.20
1175;DHT22;576;48.418;10.074;2023-06-10T11:52:58;27.20;58.20
1175;DHT22;576;48.418;10.074;2023-06-10T11:55:41;27.20;58.20
1175;DHT22;576;48.418;10.074;2023-06-10T11:58:13;27.20;58.00
1175;DHT22;576;48.418;10.074;2023-06-10T12:00:47;27.30;58.00
1175;DHT22;576;48.418;10.074;2023-06-10T12:03:16;27.30;57.90
1175;DHT22;576;48.418;10.074;2023-06-10T12:05:57;27.40;57.80
1175;DHT22;576;48.418;10.074;2023-06-10T12:08:26;27.40;57.50
1175;DHT22;576;48.418;10.074;2023-06-10T12:10:55;27.40;57.60
1175;DHT22;576;48.418;10.074;2023-06-10T12:13:26;27.50;57.60
1175;DHT22;576;48.418;10.074;2023-06-10T12:16:06;27.40;57.60
1175;DHT22;576;48.418;10.074;2023-06-10T12:18:34;27.40;57.30
1175;DHT22;576;48.418;10.074;2023-06-10T12:21:02;27.40;57.50
1175;DHT22;576;48.418;10.074;2023-06-10T12:23:31;27.40;57.70
1175;DHT22;576;48.418;10.074;2023-06-10T12:25:59;27.40;57.60
1175;DHT22;576;48.418;10.074;2023-06-10T12:28:28;27.40;57.60
1175;DHT22;576;48.418;10.074;2023-06-10T12:31:08;27.40;57.60
1175;DHT22;576;48.418;10.074;2023-06-10T12:33:36;27.40;57.50
1175;DHT22;576;48.418;10.074;2023-06-10T12:36:05;27.50;57.40
1175;DHT22;576;48.418;10.074;2023-06-10T12:38:43;27.50;57.50
1175;DHT22;576;48.418;10.074;2023-06-10T12:41:12;27.50;57.50
1175;DHT22;576;48.418;10.074;2023-06-10T12:43:40;27.40;57.60
1175;DHT22;576;48.418;10.074;2023-06-10T12:46:10;27.40;57.60
1175;DHT22;576;48.418;10.074;2023-06-10T12:48:49;27.40;57.60
1175;DHT22;576;48.418;10.074;2023-06-10T12:51:18;27.40;57.60
1175;DHT22;576;48.418;10.074;2023-06-10T12:53:46;27.40;57.60
1175;DHT22;576;48.418;10.074;2023-06-10T12:56:15;27.40;57.70
1175;DHT22;576;48.418;10.074;2023-06-10T12:58:43;27.50;57.50
1175;DHT22;576;48.418;10.074;2023-06-10T13:01:14;27.40;57.70
1175;DHT22;576;48.418;10.074;2023-06-10T13:03:42;27.40;57.60
1175;DHT22;576;48.418;10.074;2023-06-10T13:06:10;27.40;57.60
1175;DHT22;576;48.418;10.074;2023-06-10T13:08:39;27.40;57.60
1175;DHT22;576;48.418;10.074;2023-06-10T13:11:07;27.40;57.50
1175;DHT22;576;48.418;10.074;2023-06-10T13:13:36;27.50;57.50
1175;DHT22;576;48.418;10.074;2023-06-10T13:16:05;27.50;57.40
1175;DHT22;576;48.418;10.074;2023-06-10T13:18:35;27.60;57.30
1175;DHT22;576;48.418;10.074;2023-06-10T13:21:05;27.60;57.50
1175;DHT22;576;48.418;10.074;2023-06-10T13:23:33;27.60;57.40
1175;DHT22;576;48.418;10.074;2023-06-10T13:26:02;27.60;57.30
1175;DHT22;576;48.418;10.074;2023-06-10T13:28:30;27.70;57.30
1175;DHT22;576;48.418;10.074;2023-06-10T13:31:02;27.70;57.00
1175;DHT22;576;48.418;10.074;2023-06-10T13:33:30;27.70;57.10
1175;DHT22;576;48.418;10.074;2023-06-10T13:35:59;27.70;57.10
1175;DHT22;576;48.418;10.074;2023-06-10T13:38:28;27.70;57.10
1175;DHT22;576;48.418;10.074;2023-06-10T13:40:56;27.70;56.90
1175;DHT22;576;48.418;10.074;2023-06-10T13:43:25;27.70;56.90
1175;DHT22;576;48.418;10.074;2023-06-10T13:45:53;27.70;56.80
1175;DHT22;576;48.418;10.074;2023-06-10T13:48:22;27.70;56.80
1175;DHT22;576;48.418;10.074;2023-06-10T13:50:50;27.70;56.70
1175;DHT22;576;48.418;10.074;2023-06-10T13:53:20;27.70;56.90
1175;DHT22;576;48.418;10.074;2023-06-10T13:55:48;27.70;57.00
1175;DHT22;576;48.418;10.074;2023-06-10T13:58:16;27.70;57.00
1175;DHT22;576;48.418;10.074;2023-06-10T14:00:44;27.70;57.10
1175;DHT22;576;48.418;10.074;2023-06-10T14:03:14;27.70;57.00
1175;DHT22;576;48.418;10.074;2023-06-10T14:05:42;27.70;57.20
1175;DHT22;576;48.418;10.074;2023-06-10T14:08:10;27.70;57.10
1175;DHT22;576;48.418;10.074;2023-06-10T14:10:40;27.70;57.10
1175;DHT22;576;48.418;10.074;2023-06-10T14:13:08;27.70;57.10
1175;DHT22;576;48.418;10.074;2023-06-10T14:15:36;27.70;57.10
1175;DHT22;576;48.418;10.074;2023-06-10T14:18:05;27.70;57.10
1175;DHT22;576;48.418;10.074;2023-06-10T14:20:33;27.80;57.10
1175;DHT22;576;48.418;10.074;2023-06-10T14:23:01;27.80;57.10
1175;DHT22;576;48.418;10.074;2023-06-10T14:25:29;27.80;57.00
1175;DHT22;576;48.418;10.074;2023-06-10T14:27:59;27.80;57.30
1175;DHT22;576;48.418;10.074;2023-06-10T14:30:27;27.80;57.00
1175;DHT22;576;48.418;10.074;2023-06-10T14:32:55;27.80;57.10
1175;DHT22;576;48.418;10.074;2023-06-10T14:35:24;27.70;58.40
1175;DHT22;576;48.418;10.074;2023-06-10T14:37:52;27.70;58.20
1175;DHT22;576;48.418;10.074;2023-06-10T14:40:20;27.60;57.80
1175;DHT22;576;48.418;10.074;2023-06-10T14:42:51;27.60;57.50
1175;DHT22;576;48.418;10.074;2023-06-10T14:45:20;27.60;57.50
1175;DHT22;576;48.418;10.074;2023-06-10T14:47:49;27.50;57.60
1175;DHT22;576;48.418;10.074;2023-06-10T14:50:17;27.50;57.50
1175;DHT22;576;48.418;10.074;2023-06-10T14:52:45;27.50;57.60
1175;DHT22;576;48.418;10.074;2023-06-10T14:55:13;27.40;57.70
1175;DHT22;576;48.418;10.074;2023-06-10T14:57:43;27.40;57.80
1175;DHT22;576;48.418;10.074;2023-06-10T15:00:12;27.40;57.80
1175;DHT22;576;48.418;10.074;2023-06-10T15:02:43;27.40;57.90
1175;DHT22;576;48.418;10.074;2023-06-10T15:05:11;27.40;57.90
1175;DHT22;576;48.418;10.074;2023-06-10T15:07:42;27.40;57.90
1175;DHT22;576;48.418;10.074;2023-06-10T15:10:10;27.50;58.00
1175;DHT22;576;48.418;10.074;2023-06-10T15:12:38;27.40;57.70
1175;DHT22;576;48.418;10.074;2023-06-10T15:15:07;27.40;57.40
1175;DHT22;576;48.418;10.074;2023-06-10T15:17:36;27.40;57.40
1175;DHT22;576;48.418;10.074;2023-06-10T15:20:07;27.40;57.40
1175;DHT22;576;48.418;10.074;2023-06-10T15:22:35;27.50;57.10
1175;DHT22;576;48.418;10.074;2023-06-10T15:25:04;27.50;57.40
1175;DHT22;576;48.418;10.074;2023-06-10T15:27:52;27.50;57.30
1175;DHT22;576;48.418;10.074;2023-06-10T15:30:21;27.60;57.30
1175;DHT22;576;48.418;10.074;2023-06-10T15:32:49;27.60;57.30
1175;DHT22;576;48.418;10.074;2023-06-10T15:35:19;27.60;57.30
1175;DHT22;576;48.418;10.074;2023-06-10T15:37:48;27.60;57.30
1175;DHT22;576;48.418;10.074;2023-06-10T15:40:16;27.70;57.60
1175;DHT22;576;48.418;10.074;2023-06-10T15:42:45;27.70;57.20
1175;DHT22;576;48.418;10.074;2023-06-10T15:45:13;27.70;57.30
1175;DHT22;576;48.418;10.074;2023-06-10T15:47:41;27.70;57.30
1175;DHT22;576;48.418;10.074;2023-06-10T15:50:10;27.70;57.30
1175;DHT22;576;48.418;10.074;2023-06-10T15:52:39;27.70;57.80
1175;DHT22;576;48.418;10.074;2023-06-10T15:55:08;27.80;57.40
1175;DHT22;576;48.418;10.074;2023-06-10T15:57:37;27.80;57.30
1175;DHT22;576;48.418;10.074;2023-06-10T16:00:07;27.80;57.20
1175;DHT22;576;48.418;10.074;2023-06-10T16:02:36;27.80;57.20
1175;DHT22;576;48.418;10.074;2023-06-10T16:05:05;27.80;57.10
1175;DHT22;576;48.418;10.074;2023-06-10T16:07:33;27.90;57.20
1175;DHT22;576;48.418;10.074;2023-06-10T16:10:03;27.90;57.00
1175;DHT22;576;48.418;10.074;2023-06-10T16:12:32;27.90;57.00
1175;DHT22;576;48.418;10.074;2023-06-10T16:15:00;27.90;57.00
1175;DHT22;576;48.418;10.074;2023-06-10T16:17:28;27.90;57.00
1175;DHT22;576;48.418;10.074;2023-06-10T16:19:56;27.90;56.90